createdAt,value
2023-01-01T00:00:49.952Z,102526.41
2023-01-01T00:03:18.378Z,102519.34
2023-01-01T00:05:46.129Z,102525.44
2023-01-01T00:08:32.274Z,102526.97
2023-01-01T00:11:03.869Z,102524.41
2023-01-01T00:13:32.574Z,102527.94
2023-01-01T00:16:14.945Z,102527.81
2023-01-01T00:18:43.381Z,102528.69
2023-01-01T00:21:14.451Z,102509.06
2023-01-01T00:23:42.219Z,102512.50
2023-01-01T00:26:15.577Z,102514.47
2023-01-01T00:28:43.889Z,102524.00
2023-01-01T00:31:20.617Z,102513.09
2023-01-01T00:33:53.151Z,102514.63
2023-01-01T00:36:22.990Z,102511.00
2023-01-01T00:38:50.923Z,102507.47
2023-01-01T00:41:19.703Z,102504.63
2023-01-01T00:43:47.989Z,102502.84
2023-01-01T00:46:15.970Z,102509.22
2023-01-01T00:48:43.941Z,102504.63
2023-01-01T00:51:11.785Z,102506.50
2023-01-01T00:53:39.959Z,102508.28
2023-01-01T00:56:08.183Z,102497.34
2023-01-01T00:58:35.870Z,102506.47
2023-01-01T01:01:03.950Z,102506.78
2023-01-01T01:03:31.903Z,102516.19
2023-01-01T01:06:02.695Z,102507.91
2023-01-01T01:08:32.541Z,102511.97
2023-01-01T01:11:09.075Z,102513.91
2023-01-01T01:13:37.382Z,102504.09
2023-01-01T01:16:17.640Z,102518.13
2023-01-01T01:18:46.226Z,102520.53
2023-01-01T01:21:18.725Z,102517.41
2023-01-01T01:23:47.351Z,102527.22
2023-01-01T01:26:18.742Z,102518.13
2023-01-01T01:28:49.670Z,102525.16
2023-01-01T01:31:19.558Z,102510.94
2023-01-01T01:33:48.164Z,102512.25
2023-01-01T01:36:17.462Z,102514.63
2023-01-01T01:38:45.988Z,102506.88
2023-01-01T01:41:27.795Z,102505.09
2023-01-01T01:43:59.199Z,102510.72
2023-01-01T01:46:40.834Z,102505.44
2023-01-01T01:49:38.474Z,102498.97
2023-01-01T01:52:06.333Z,102505.47
2023-01-01T01:54:34.589Z,102503.06
2023-01-01T01:57:06.283Z,102503.00
2023-01-01T01:59:38.005Z,102505.97
2023-01-01T02:02:15.729Z,102504.00
2023-01-01T02:04:44.287Z,102493.06
2023-01-01T02:07:14.215Z,102488.69
2023-01-01T02:09:42.785Z,102500.47
2023-01-01T02:12:10.759Z,102493.38
2023-01-01T02:14:38.548Z,102481.03
2023-01-01T02:17:20.265Z,102483.38
2023-01-01T02:19:53.820Z,102471.91
2023-01-01T02:22:36.214Z,102477.91
2023-01-01T02:25:11.541Z,102461.75
2023-01-01T02:27:57.687Z,102465.28
2023-01-01T02:30:26.971Z,102462.56
2023-01-01T02:33:01.277Z,102476.97
2023-01-01T02:35:36.542Z,102464.91
2023-01-01T02:38:18.420Z,102475.78
2023-01-01T02:40:53.127Z,102480.81
2023-01-01T02:43:24.808Z,102472.88
2023-01-01T02:45:57.064Z,102470.22
2023-01-01T02:48:43.487Z,102478.31
2023-01-01T02:51:14.454Z,102469.22
2023-01-01T02:53:50.011Z,102476.94
2023-01-01T02:56:39.704Z,102476.50
2023-01-01T02:59:52.213Z,102479.38
2023-01-01T03:02:57.333Z,102484.31
2023-01-01T03:06:11.573Z,102478.50
2023-01-01T03:09:02.588Z,102480.09
2023-01-01T03:11:44.199Z,102476.44
2023-01-01T03:14:26.846Z,102472.19
2023-01-01T03:17:00.219Z,102476.50
2023-01-01T03:19:32.158Z,102466.06
2023-01-01T03:22:21.711Z,102459.94
2023-01-01T03:24:57.024Z,102464.00
2023-01-01T03:27:31.506Z,102462.94
2023-01-01T03:30:08.296Z,102455.72
2023-01-01T03:32:59.431Z,102458.25
2023-01-01T03:35:42.295Z,102452.06
2023-01-01T03:38:26.387Z,102451.56
2023-01-01T03:41:06.512Z,102449.44
2023-01-01T03:43:39.610Z,102457.09
2023-01-01T03:46:11.158Z,102451.94
2023-01-01T03:49:02.515Z,102442.81
2023-01-01T03:51:49.846Z,102443.47
2023-01-01T03:54:58.714Z,102447.16
2023-01-01T03:57:33.060Z,102442.75
2023-01-01T04:00:00.610Z,102446.28
2023-01-01T04:02:37.000Z,102443.78
2023-01-01T04:05:07.504Z,102445.69
2023-01-01T04:07:35.581Z,102438.19
2023-01-01T04:10:17.341Z,102439.66
2023-01-01T04:12:46.464Z,102435.16
2023-01-01T04:15:14.981Z,102434.78
2023-01-01T04:17:42.720Z,102428.59
2023-01-01T04:20:11.617Z,102431.19
2023-01-01T04:22:39.914Z,102433.25
2023-01-01T04:25:08.438Z,102438.75
2023-01-01T04:27:36.923Z,102448.41
2023-01-01T04:30:07.655Z,102451.59
2023-01-01T04:32:35.562Z,102451.72
2023-01-01T04:35:03.343Z,102442.94
2023-01-01T04:37:31.099Z,102438.41
2023-01-01T04:39:58.777Z,102444.50
2023-01-01T04:42:26.351Z,102443.63
2023-01-01T04:44:53.827Z,102451.41
2023-01-01T04:47:22.414Z,102446.13
2023-01-01T04:49:50.019Z,102440.72
2023-01-01T04:52:17.774Z,102441.47
2023-01-01T04:54:45.428Z,102440.97
2023-01-01T04:57:13.945Z,102448.13
2023-01-01T04:59:42.065Z,102451.72
2023-01-01T05:02:09.765Z,102453.38
2023-01-01T05:04:37.658Z,102438.47
2023-01-01T05:07:05.447Z,102449.09
2023-01-01T05:09:33.036Z,102460.44
2023-01-01T05:12:00.568Z,102458.78
2023-01-01T05:14:28.394Z,102458.63
2023-01-01T05:16:56.103Z,102452.47
2023-01-01T05:19:23.727Z,102456.09
2023-01-01T05:21:51.698Z,102454.44
2023-01-01T05:24:19.512Z,102457.72
2023-01-01T05:26:47.213Z,102461.38
2023-01-01T05:29:16.852Z,102460.56
2023-01-01T05:31:46.449Z,102462.50
2023-01-01T05:34:14.619Z,102457.31
2023-01-01T05:36:42.529Z,102463.38
2023-01-01T05:39:12.658Z,102452.41
2023-01-01T05:41:41.067Z,102461.13
2023-01-01T05:44:09.766Z,102448.56
2023-01-01T05:46:37.388Z,102455.69
2023-01-01T05:49:05.356Z,102441.69
2023-01-01T05:54:02.759Z,102451.38
2023-01-01T05:56:30.619Z,102454.63
2023-01-01T05:58:58.349Z,102455.94
2023-01-01T06:01:29.581Z,102454.22
2023-01-01T06:03:58.581Z,102449.88
2023-01-01T06:06:29.694Z,102459.09
2023-01-01T06:09:01.651Z,102450.19
2023-01-01T06:11:30.435Z,102446.50
2023-01-01T06:14:00.137Z,102449.91
2023-01-01T06:16:29.412Z,102446.06
2023-01-01T06:18:57.388Z,102445.75
2023-01-01T06:21:26.763Z,102445.06
2023-01-01T06:23:56.830Z,102443.88
2023-01-01T06:26:27.453Z,102453.31
2023-01-01T06:28:55.702Z,102448.16
2023-01-01T06:31:24.245Z,102452.06
2023-01-01T06:33:52.158Z,102452.50
2023-01-01T06:36:22.391Z,102461.13
2023-01-01T06:38:52.966Z,102460.03
2023-01-01T06:41:22.937Z,102461.00
2023-01-01T06:43:50.993Z,102463.97
2023-01-01T06:46:22.910Z,102468.41
2023-01-01T06:48:54.398Z,102461.16
2023-01-01T06:51:24.760Z,102463.94
2023-01-01T06:53:59.425Z,102462.34
2023-01-01T06:56:27.582Z,102465.97
2023-01-01T06:58:55.337Z,102466.84
2023-01-01T07:01:25.542Z,102473.91
2023-01-01T07:03:56.270Z,102478.34
2023-01-01T07:06:25.562Z,102473.84
2023-01-01T07:08:53.108Z,102475.63
2023-01-01T07:11:21.133Z,102480.75
2023-01-01T07:13:48.892Z,102483.25
2023-01-01T07:16:16.772Z,102482.31
2023-01-01T07:18:45.701Z,102471.69
2023-01-01T07:21:34.372Z,102465.59
2023-01-01T07:24:04.786Z,102476.25
2023-01-01T07:26:33.936Z,102479.78
2023-01-01T07:29:07.366Z,102470.50
2023-01-01T07:31:37.504Z,102467.50
2023-01-01T07:34:11.658Z,102470.41
2023-01-01T07:36:39.482Z,102467.78
2023-01-01T07:39:07.456Z,102470.22
2023-01-01T07:41:36.169Z,102469.34
2023-01-01T07:44:04.431Z,102472.72
2023-01-01T07:46:36.208Z,102470.22
2023-01-01T07:49:04.832Z,102471.09
2023-01-01T07:51:32.772Z,102472.91
2023-01-01T07:54:06.177Z,102471.84
2023-01-01T07:56:36.199Z,102484.41
2023-01-01T07:59:04.761Z,102472.88
2023-01-01T08:01:35.653Z,102488.84
2023-01-01T08:04:04.564Z,102480.97
2023-01-01T08:06:32.373Z,102484.38
2023-01-01T08:09:00.122Z,102485.47
2023-01-01T08:11:28.636Z,102488.66
2023-01-01T08:13:56.290Z,102493.63
2023-01-01T08:16:24.076Z,102487.84
2023-01-01T08:18:51.824Z,102489.50
2023-01-01T08:21:20.039Z,102491.44
2023-01-01T08:23:47.595Z,102494.97
2023-01-01T08:26:16.710Z,102498.94
2023-01-01T08:28:45.080Z,102497.66
2023-01-01T08:31:12.991Z,102505.13
2023-01-01T08:33:40.570Z,102496.25
2023-01-01T08:36:13.052Z,102497.78
2023-01-01T08:38:40.785Z,102488.81
2023-01-01T08:41:08.759Z,102489.00
2023-01-01T08:43:36.276Z,102486.81
2023-01-01T08:46:04.056Z,102482.75
2023-01-01T08:48:31.808Z,102483.94
2023-01-01T08:51:01.641Z,102491.41
2023-01-01T08:53:30.814Z,102497.47
2023-01-01T08:55:59.422Z,102492.81
2023-01-01T08:58:27.760Z,102491.28
2023-01-01T09:00:55.680Z,102487.88
2023-01-01T09:03:23.466Z,102490.59
2023-01-01T09:05:51.350Z,102489.59
2023-01-01T09:08:19.243Z,102490.94
2023-01-01T09:10:50.916Z,102497.63
2023-01-01T09:14:34.789Z,102495.06
2023-01-01T09:17:02.666Z,102493.72
2023-01-01T09:19:30.264Z,102500.06
2023-01-01T09:21:58.001Z,102500.13
2023-01-01T09:24:25.783Z,102507.84
2023-01-01T09:26:53.402Z,102494.44
2023-01-01T09:29:22.134Z,102496.38
2023-01-01T09:31:50.128Z,102503.00
2023-01-01T09:34:18.255Z,102495.72
2023-01-01T09:36:46.720Z,102497.84
2023-01-01T09:39:15.805Z,102501.13
2023-01-01T09:42:01.562Z,102494.66
2023-01-01T09:44:55.520Z,102496.84
2023-01-01T09:47:26.020Z,102498.66
2023-01-01T09:49:56.965Z,102505.34
2023-01-01T09:52:29.084Z,102500.59
2023-01-01T09:55:03.369Z,102497.38
2023-01-01T09:57:33.562Z,102502.72
2023-01-01T10:00:01.323Z,102494.06
2023-01-01T10:02:34.737Z,102495.25
2023-01-01T10:05:41.024Z,102485.59
2023-01-01T10:08:23.687Z,102489.06
2023-01-01T10:11:09.730Z,102479.91
2023-01-01T10:13:39.794Z,102481.03
2023-01-01T10:16:25.614Z,102480.25
2023-01-01T10:18:56.717Z,102471.78
2023-01-01T10:21:34.256Z,102475.63
2023-01-01T10:24:46.735Z,102474.53
2023-01-01T10:27:35.896Z,102473.34
2023-01-01T10:30:13.982Z,102464.25
2023-01-01T10:32:43.490Z,102460.41
2023-01-01T10:35:14.796Z,102463.03
2023-01-01T10:37:43.467Z,102457.38
2023-01-01T10:40:18.250Z,102457.38
2023-01-01T10:42:54.150Z,102450.44
2023-01-01T10:45:34.493Z,102456.16
2023-01-01T10:48:17.520Z,102445.59
2023-01-01T10:50:57.442Z,102448.03
2023-01-01T10:53:38.592Z,102449.38
2023-01-01T10:56:25.337Z,102440.78
2023-01-01T10:58:55.677Z,102437.50
2023-01-01T11:01:29.503Z,102438.47
2023-01-01T11:04:21.223Z,102428.34
2023-01-01T11:06:48.755Z,102422.59
2023-01-01T11:09:32.031Z,102425.59
2023-01-01T11:12:19.063Z,102427.44
2023-01-01T11:14:58.542Z,102426.16
2023-01-01T11:17:29.275Z,102419.78
2023-01-01T11:20:02.060Z,102413.13
2023-01-01T11:22:53.402Z,102411.53
2023-01-01T11:25:29.955Z,102407.84
2023-01-01T11:28:15.780Z,102407.06
2023-01-01T11:30:58.823Z,102396.31
2023-01-01T11:33:29.291Z,102402.13
2023-01-01T11:35:56.852Z,102396.84
2023-01-01T11:38:29.747Z,102392.31
2023-01-01T11:41:06.869Z,102402.50
2023-01-01T11:43:45.719Z,102392.63
2023-01-01T11:46:23.570Z,102390.59
2023-01-01T11:48:53.756Z,102383.91
2023-01-01T11:51:34.094Z,102386.66
2023-01-01T11:54:37.497Z,102389.22
2023-01-01T11:57:23.774Z,102383.84
2023-01-01T12:00:00.048Z,102389.56
2023-01-01T12:02:59.971Z,102384.50
2023-01-01T12:05:44.434Z,102376.34
2023-01-01T12:08:16.872Z,102374.44
2023-01-01T12:10:58.363Z,102376.06
2023-01-01T12:13:30.210Z,102377.00
2023-01-01T12:16:10.441Z,102379.81
2023-01-01T12:19:10.149Z,102371.22
2023-01-01T12:21:43.327Z,102372.84
2023-01-01T12:24:13.209Z,102374.47
2023-01-01T12:26:41.117Z,102378.31
2023-01-01T12:29:17.722Z,102372.63
2023-01-01T12:32:07.647Z,102369.16
2023-01-01T12:34:55.567Z,102363.69
2023-01-01T12:37:32.342Z,102367.72
2023-01-01T12:40:25.739Z,102367.25
2023-01-01T12:43:05.845Z,102352.97
2023-01-01T12:45:49.855Z,102350.56
2023-01-01T12:48:26.627Z,102351.69
2023-01-01T12:51:05.187Z,102354.25
2023-01-01T12:53:51.576Z,102346.56
2023-01-01T12:56:37.818Z,102342.56
2023-01-01T12:59:20.093Z,102350.88
2023-01-01T13:01:49.683Z,102360.34
2023-01-01T13:04:22.316Z,102354.72
2023-01-01T13:06:52.833Z,102346.19
2023-01-01T13:09:22.984Z,102351.03
2023-01-01T13:12:04.443Z,102351.25
2023-01-01T13:14:41.962Z,102350.25
2023-01-01T13:17:26.488Z,102344.50
2023-01-01T13:20:16.870Z,102340.53
2023-01-01T13:22:45.486Z,102343.25
2023-01-01T13:25:14.197Z,102338.41
2023-01-01T13:27:56.874Z,102343.56
2023-01-01T13:30:39.972Z,102351.81
2023-01-01T13:33:37.108Z,102348.47
2023-01-01T13:36:19.564Z,102339.75
2023-01-01T13:38:54.066Z,102346.25
2023-01-01T13:41:32.374Z,102345.00
2023-01-01T13:44:00.133Z,102340.06
2023-01-01T13:47:08.246Z,102341.78
2023-01-01T13:49:41.816Z,102333.22
2023-01-01T13:52:34.547Z,102337.84
2023-01-01T13:55:29.115Z,102344.06
2023-01-01T13:58:14.137Z,102352.00
2023-01-01T14:00:53.950Z,102350.31
2023-01-01T14:03:24.267Z,102353.94
2023-01-01T14:06:07.443Z,102354.34
2023-01-01T14:08:37.480Z,102355.88
2023-01-01T14:11:56.035Z,102352.06
2023-01-01T14:14:31.046Z,102359.13
2023-01-01T14:17:02.347Z,102351.75
2023-01-01T14:19:30.358Z,102358.25
2023-01-01T14:21:59.194Z,102361.47
2023-01-01T14:24:28.199Z,102360.00
2023-01-01T14:26:56.709Z,102360.16
2023-01-01T14:29:32.222Z,102356.53
2023-01-01T14:32:02.786Z,102366.19
2023-01-01T14:34:33.343Z,102360.41
2023-01-01T14:37:03.880Z,102361.13
2023-01-01T14:39:35.918Z,102372.78
2023-01-01T14:42:10.279Z,102372.28
2023-01-01T14:44:41.846Z,102373.53
2023-01-01T14:47:32.495Z,102375.91
2023-01-01T14:50:06.722Z,102376.19
2023-01-01T14:52:35.686Z,102371.75
2023-01-01T14:55:05.271Z,102374.75
2023-01-01T14:57:35.826Z,102375.50
2023-01-01T15:00:15.243Z,102376.66
2023-01-01T15:02:43.056Z,102375.69
2023-01-01T15:05:35.413Z,102367.06
2023-01-01T15:08:18.422Z,102383.63
2023-01-01T15:10:46.465Z,102380.00
2023-01-01T15:13:21.339Z,102374.13
2023-01-01T15:15:57.135Z,102384.59
2023-01-01T15:18:50.789Z,102386.59
2023-01-01T15:21:21.527Z,102374.69
2023-01-01T15:23:57.595Z,102382.50
2023-01-01T15:26:36.738Z,102387.63
2023-01-01T15:29:09.956Z,102376.34
2023-01-01T15:31:49.652Z,102377.44
2023-01-01T15:34:25.014Z,102382.81
2023-01-01T15:36:54.709Z,102383.88
2023-01-01T15:39:23.040Z,102373.28
2023-01-01T15:41:52.840Z,102387.44
2023-01-01T15:44:28.018Z,102389.47
2023-01-01T15:47:15.977Z,102384.78
2023-01-01T15:49:44.577Z,102387.09
2023-01-01T15:52:27.435Z,102394.22
2023-01-01T15:54:56.158Z,102396.53
2023-01-01T15:57:24.787Z,102401.28
2023-01-01T15:59:53.757Z,102400.22
2023-01-01T16:02:32.666Z,102401.06
2023-01-01T16:05:00.643Z,102389.19
2023-01-01T16:07:28.750Z,102388.25
2023-01-01T16:09:58.095Z,102393.97
2023-01-01T16:12:26.037Z,102388.25
2023-01-01T16:14:53.810Z,102399.00
2023-01-01T16:17:21.589Z,102400.94
2023-01-01T16:19:51.723Z,102397.63
2023-01-01T16:22:20.647Z,102396.75
2023-01-01T16:24:48.507Z,102395.75
2023-01-01T16:27:16.482Z,102390.75
2023-01-01T16:29:54.345Z,102405.28
2023-01-01T16:32:22.767Z,102401.50
2023-01-01T16:34:50.364Z,102402.06
2023-01-01T16:37:22.563Z,102403.72
2023-01-01T16:39:50.872Z,102408.00
2023-01-01T16:42:19.179Z,102399.28
2023-01-01T16:44:47.967Z,102396.31
2023-01-01T16:47:16.143Z,102405.34
2023-01-01T16:49:44.547Z,102399.84
2023-01-01T16:52:12.083Z,102409.44
2023-01-01T16:54:41.210Z,102414.41
2023-01-01T16:57:09.028Z,102418.53
2023-01-01T16:59:36.840Z,102414.03
2023-01-01T17:02:04.936Z,102410.53
2023-01-01T17:04:32.658Z,102411.28
2023-01-01T17:07:00.312Z,102409.22
2023-01-01T17:09:28.833Z,102417.66
2023-01-01T17:11:56.695Z,102410.22
2023-01-01T17:14:24.321Z,102417.66
2023-01-01T17:16:55.338Z,102413.91
2023-01-01T17:19:23.071Z,102412.75
2023-01-01T17:21:50.859Z,102414.50
2023-01-01T17:24:20.312Z,102419.06
2023-01-01T17:26:55.507Z,102425.00
2023-01-01T17:29:24.196Z,102419.63
2023-01-01T17:31:52.457Z,102421.19
2023-01-01T17:34:20.411Z,102430.50
2023-01-01T17:36:48.268Z,102426.41
2023-01-01T17:39:16.287Z,102420.09
2023-01-01T17:41:45.593Z,102419.81
2023-01-01T17:44:13.339Z,102424.00
2023-01-01T17:46:42.562Z,102427.56
2023-01-01T17:49:10.431Z,102432.06
2023-01-01T17:51:39.531Z,102438.38
2023-01-01T17:54:10.395Z,102421.53
2023-01-01T17:56:38.391Z,102421.81
2023-01-01T17:59:06.319Z,102422.47
2023-01-01T18:01:35.495Z,102421.97
2023-01-01T18:04:08.786Z,102427.56
2023-01-01T18:06:42.648Z,102433.19
2023-01-01T18:09:13.903Z,102432.31
2023-01-01T18:11:42.233Z,102435.91
2023-01-01T18:14:10.942Z,102431.47
2023-01-01T18:16:40.995Z,102428.25
2023-01-01T18:19:08.883Z,102428.91
2023-01-01T18:21:36.781Z,102426.28
2023-01-01T18:24:11.331Z,102428.44
2023-01-01T18:26:39.292Z,102425.06
2023-01-01T18:29:07.162Z,102446.31
2023-01-01T18:31:35.685Z,102431.84
2023-01-01T18:34:04.535Z,102441.91
2023-01-01T18:36:34.193Z,102440.28
2023-01-01T18:39:15.931Z,102437.09
2023-01-01T18:41:49.682Z,102435.84
2023-01-01T18:44:21.261Z,102434.41
2023-01-01T18:47:04.196Z,102438.81
2023-01-01T18:49:33.172Z,102429.81
2023-01-01T18:52:19.521Z,102442.97
2023-01-01T18:54:47.194Z,102442.81
2023-01-01T18:57:29.183Z,102446.69
2023-01-01T19:00:16.590Z,102452.81
2023-01-01T19:03:05.070Z,102451.75
2023-01-01T19:05:34.896Z,102446.38
2023-01-01T19:08:13.165Z,102446.28
2023-01-01T19:10:45.752Z,102446.50
2023-01-01T19:13:23.880Z,102453.72
2023-01-01T19:16:24.265Z,102453.34
2023-01-01T19:18:53.311Z,102454.00
2023-01-01T19:21:24.199Z,102457.22
2023-01-01T19:23:57.163Z,102456.50
2023-01-01T19:26:25.069Z,102457.28
2023-01-01T19:28:55.072Z,102450.03
2023-01-01T19:31:23.187Z,102461.69
2023-01-01T19:33:51.364Z,102455.38
2023-01-01T19:36:20.509Z,102448.25
2023-01-01T19:39:01.565Z,102454.31
2023-01-01T19:41:29.264Z,102457.56
2023-01-01T19:43:57.644Z,102459.47
2023-01-01T19:46:25.750Z,102467.09
2023-01-01T19:48:53.555Z,102457.94
2023-01-01T19:51:22.677Z,102460.97
2023-01-01T19:53:51.886Z,102459.59
2023-01-01T19:56:19.677Z,102455.50
2023-01-01T19:58:48.290Z,102457.56
2023-01-01T20:01:16.493Z,102456.50
2023-01-01T20:03:59.827Z,102458.28
2023-01-01T20:06:27.822Z,102470.09
2023-01-01T20:08:55.540Z,102459.34
2023-01-01T20:11:23.283Z,102461.81
2023-01-01T20:13:51.267Z,102461.97
2023-01-01T20:16:19.020Z,102466.22
2023-01-01T20:18:49.094Z,102469.59
2023-01-01T20:21:35.344Z,102469.19
2023-01-01T20:24:03.268Z,102479.69
2023-01-01T20:26:31.228Z,102477.16
2023-01-01T20:29:17.508Z,102483.06
2023-01-01T20:31:46.007Z,102480.34
2023-01-01T20:34:13.745Z,102469.69
2023-01-01T20:37:00.131Z,102475.19
2023-01-01T20:39:28.236Z,102479.88
2023-01-01T20:41:56.255Z,102481.28
2023-01-01T20:44:24.062Z,102485.06
2023-01-01T20:46:52.328Z,102483.66
2023-01-01T20:49:20.967Z,102481.72
2023-01-01T20:51:51.468Z,102479.19
2023-01-01T20:54:20.541Z,102482.97
2023-01-01T20:56:48.541Z,102490.84
2023-01-01T21:02:08.392Z,102478.00
2023-01-01T21:04:40.783Z,102482.47
2023-01-01T21:07:12.603Z,102487.97
2023-01-01T21:09:41.318Z,102485.13
2023-01-01T21:12:10.142Z,102485.06
2023-01-01T21:14:37.999Z,102482.00
2023-01-01T21:17:23.773Z,102477.56
2023-01-01T21:19:54.175Z,102478.25
2023-01-01T21:22:22.148Z,102480.78
2023-01-01T21:24:54.469Z,102469.22
2023-01-01T21:27:33.965Z,102474.22
2023-01-01T21:30:01.961Z,102472.69
2023-01-01T21:32:39.493Z,102475.44
2023-01-01T21:35:22.802Z,102483.69
2023-01-01T21:37:54.243Z,102479.47
2023-01-01T21:40:22.760Z,102483.72
2023-01-01T21:42:54.569Z,102487.44
2023-01-01T21:45:38.475Z,102482.94
2023-01-01T21:48:15.616Z,102488.09
2023-01-01T21:50:46.318Z,102489.41
2023-01-01T21:53:20.368Z,102485.31
2023-01-01T21:55:54.668Z,102482.84
2023-01-01T21:58:58.664Z,102484.31
2023-01-01T22:01:26.427Z,102484.00
2023-01-01T22:04:19.949Z,102479.81
2023-01-01T22:06:54.993Z,102482.44
2023-01-01T22:09:34.515Z,102478.44
2023-01-01T22:12:14.288Z,102479.72
2023-01-01T22:14:47.263Z,102481.88
2023-01-01T22:17:28.541Z,102483.34
2023-01-01T22:20:06.293Z,102491.31
2023-01-01T22:22:34.553Z,102489.59
2023-01-01T22:25:28.457Z,102492.59
2023-01-01T22:27:56.514Z,102487.03
2023-01-01T22:30:35.174Z,102495.19
2023-01-01T22:33:03.458Z,102485.28
2023-01-01T22:35:32.835Z,102490.47
2023-01-01T22:38:03.197Z,102488.25
2023-01-01T22:40:34.076Z,102490.25
2023-01-01T22:43:06.109Z,102477.47
2023-01-01T22:45:41.809Z,102472.66
2023-01-01T22:48:35.329Z,102476.63
2023-01-01T22:51:14.362Z,102469.28
2023-01-01T22:53:42.312Z,102472.72
2023-01-01T22:56:10.400Z,102476.34
2023-01-01T22:58:38.117Z,102474.47
2023-01-01T23:01:06.140Z,102470.34
2023-01-01T23:03:34.062Z,102473.59
2023-01-01T23:06:02.118Z,102467.81
2023-01-01T23:08:30.456Z,102468.13
2023-01-01T23:10:59.708Z,102466.34
2023-01-01T23:13:46.005Z,102467.78
2023-01-01T23:16:14.092Z,102465.25
2023-01-01T23:18:42.062Z,102462.81
2023-01-01T23:21:15.123Z,102459.19
2023-01-01T23:23:43.040Z,102452.53
2023-01-01T23:26:11.938Z,102453.53
2023-01-01T23:28:39.875Z,102441.34
2023-01-01T23:31:11.279Z,102444.84
2023-01-01T23:33:39.793Z,102448.22
2023-01-01T23:36:08.368Z,102442.38
2023-01-01T23:38:37.061Z,102447.41
2023-01-01T23:41:05.066Z,102443.75
2023-01-01T23:43:33.710Z,102441.75
2023-01-01T23:46:03.241Z,102439.16
2023-01-01T23:48:31.045Z,102442.72
2023-01-01T23:50:59.135Z,102436.50
2023-01-01T23:53:26.914Z,102438.44
2023-01-01T23:55:54.873Z,102433.38
2023-01-01T23:58:23.186Z,102433.25
